sensor_id;sensor_type;location;lat;lon;timestamp;P1;durP1;ratioP1;P2;durP2;ratioP2
69161;SDS011;56269;51.738;21.652;2022-11-14T00:00:25;40.78;;;12.73;;
69161;SDS011;56269;51.738;21.652;2022-11-14T00:03:07;44.63;;;12.73;;
69161;SDS011;56269;51.738;21.652;2022-11-14T00:05:38;39.53;;;12.47;;
69161;SDS011;56269;51.738;21.652;2022-11-14T00:08:05;44.80;;;12.50;;
69161;SDS011;56269;51.738;21.652;2022-11-14T00:10:32;43.15;;;12.65;;
69161;SDS011;56269;51.738;21.652;2022-11-14T00:12:58;42.83;;;12.65;;
69161;SDS011;56269;51.738;21.652;2022-11-14T00:15:24;42.55;;;12.05;;
69161;SDS011;56269;51.738;21.652;2022-11-14T00:17:50;44.30;;;13.00;;
69161;SDS011;56269;51.738;21.652;2022-11-14T00:20:17;43.03;;;12.73;;
69161;SDS011;56269;51.738;21.652;2022-11-14T00:22:43;45.35;;;12.13;;
69161;SDS011;56269;51.738;21.652;2022-11-14T00:25:09;44.22;;;12.75;;
69161;SDS011;56269;51.738;21.652;2022-11-14T00:27:35;41.70;;;13.67;;
69161;SDS011;56269;51.738;21.652;2022-11-14T00:30:01;47.28;;;13.00;;
69161;SDS011;56269;51.738;21.652;2022-11-14T00:32:28;41.05;;;12.15;;
69161;SDS011;56269;51.738;21.652;2022-11-14T00:34:55;43.13;;;12.93;;
69161;SDS011;56269;51.738;21.652;2022-11-14T00:37:21;43.15;;;12.52;;
69161;SDS011;56269;51.738;21.652;2022-11-14T00:39:47;49.97;;;13.57;;
69161;SDS011;56269;51.738;21.652;2022-11-14T00:42:13;41.22;;;12.88;;
69161;SDS011;56269;51.738;21.652;2022-11-14T00:44:40;40.92;;;12.77;;
69161;SDS011;56269;51.738;21.652;2022-11-14T00:47:06;39.70;;;13.07;;
69161;SDS011;56269;51.738;21.652;2022-11-14T00:49:32;38.30;;;12.27;;
69161;SDS011;56269;51.738;21.652;2022-11-14T00:51:58;40.78;;;12.68;;
69161;SDS011;56269;51.738;21.652;2022-11-14T00:54:24;39.45;;;11.77;;
69161;SDS011;56269;51.738;21.652;2022-11-14T00:56:51;38.10;;;11.82;;
69161;SDS011;56269;51.738;21.652;2022-11-14T00:59:17;37.70;;;12.47;;
69161;SDS011;56269;51.738;21.652;2022-11-14T01:01:44;40.85;;;11.95;;
69161;SDS011;56269;51.738;21.652;2022-11-14T01:04:10;34.65;;;10.90;;
69161;SDS011;56269;51.738;21.652;2022-11-14T01:06:36;37.85;;;11.48;;
69161;SDS011;56269;51.738;21.652;2022-11-14T01:09:02;42.15;;;12.48;;
69161;SDS011;56269;51.738;21.652;2022-11-14T01:11:28;38.63;;;11.13;;
69161;SDS011;56269;51.738;21.652;2022-11-14T01:13:54;39.92;;;11.40;;
69161;SDS011;56269;51.738;21.652;2022-11-14T01:16:20;42.45;;;12.48;;
69161;SDS011;56269;51.738;21.652;2022-11-14T01:18:47;38.70;;;11.55;;
69161;SDS011;56269;51.738;21.652;2022-11-14T01:21:13;47.63;;;13.70;;
69161;SDS011;56269;51.738;21.652;2022-11-14T01:23:40;35.70;;;12.00;;
69161;SDS011;56269;51.738;21.652;2022-11-14T01:26:11;45.63;;;13.15;;
69161;SDS011;56269;51.738;21.652;2022-11-14T01:28:39;52.58;;;13.93;;
69161;SDS011;56269;51.738;21.652;2022-11-14T01:31:09;45.35;;;12.63;;
69161;SDS011;56269;51.738;21.652;2022-11-14T01:33:36;42.97;;;12.43;;
69161;SDS011;56269;51.738;21.652;2022-11-14T01:36:03;44.70;;;11.97;;
69161;SDS011;56269;51.738;21.652;2022-11-14T01:38:30;44.40;;;12.50;;
69161;SDS011;56269;51.738;21.652;2022-11-14T01:40:56;42.72;;;12.25;;
69161;SDS011;56269;51.738;21.652;2022-11-14T01:43:23;43.65;;;12.50;;
69161;SDS011;56269;51.738;21.652;2022-11-14T01:45:51;45.20;;;13.27;;
69161;SDS011;56269;51.738;21.652;2022-11-14T01:48:25;43.53;;;11.80;;
69161;SDS011;56269;51.738;21.652;2022-11-14T01:50:57;39.45;;;11.75;;
69161;SDS011;56269;51.738;21.652;2022-11-14T01:53:44;45.55;;;13.13;;
69161;SDS011;56269;51.738;21.652;2022-11-14T01:56:13;43.20;;;12.07;;
69161;SDS011;56269;51.738;21.652;2022-11-14T01:58:43;48.33;;;12.95;;
69161;SDS011;56269;51.738;21.652;2022-11-14T02:01:13;43.90;;;12.33;;
69161;SDS011;56269;51.738;21.652;2022-11-14T02:03:40;44.63;;;12.63;;
69161;SDS011;56269;51.738;21.652;2022-11-14T02:06:09;37.22;;;10.95;;
69161;SDS011;56269;51.738;21.652;2022-11-14T02:08:41;42.00;;;12.10;;
69161;SDS011;56269;51.738;21.652;2022-11-14T02:11:11;41.15;;;12.07;;
69161;SDS011;56269;51.738;21.652;2022-11-14T02:13:37;40.10;;;11.07;;
69161;SDS011;56269;51.738;21.652;2022-11-14T02:16:05;37.90;;;11.77;;
69161;SDS011;56269;51.738;21.652;2022-11-14T02:18:31;36.60;;;11.88;;
69161;SDS011;56269;51.738;21.652;2022-11-14T02:20:57;38.45;;;12.32;;
69161;SDS011;56269;51.738;21.652;2022-11-14T02:23:24;38.15;;;11.32;;
69161;SDS011;56269;51.738;21.652;2022-11-14T02:25:51;36.27;;;11.23;;
69161;SDS011;56269;51.738;21.652;2022-11-14T02:28:17;41.10;;;11.60;;
69161;SDS011;56269;51.738;21.652;2022-11-14T02:30:45;38.03;;;11.88;;
69161;SDS011;56269;51.738;21.652;2022-11-14T02:33:11;39.95;;;11.93;;
69161;SDS011;56269;51.738;21.652;2022-11-14T02:35:37;35.03;;;11.33;;
69161;SDS011;56269;51.738;21.652;2022-11-14T02:38:03;36.90;;;12.02;;
69161;SDS011;56269;51.738;21.652;2022-11-14T02:40:29;37.70;;;11.52;;
69161;SDS011;56269;51.738;21.652;2022-11-14T02:42:55;33.03;;;11.45;;
69161;SDS011;56269;51.738;21.652;2022-11-14T02:45:22;34.22;;;10.90;;
69161;SDS011;56269;51.738;21.652;2022-11-14T02:47:48;34.83;;;11.77;;
69161;SDS011;56269;51.738;21.652;2022-11-14T02:50:15;37.53;;;12.05;;
69161;SDS011;56269;51.738;21.652;2022-11-14T02:52:41;33.72;;;11.32;;
69161;SDS011;56269;51.738;21.652;2022-11-14T02:55:08;37.67;;;12.25;;
69161;SDS011;56269;51.738;21.652;2022-11-14T02:57:34;36.85;;;11.65;;
69161;SDS011;56269;51.738;21.652;2022-11-14T03:00:01;39.30;;;12.53;;
69161;SDS011;56269;51.738;21.652;2022-11-14T03:02:28;39.70;;;13.05;;
69161;SDS011;56269;51.738;21.652;2022-11-14T03:04:54;44.03;;;12.98;;
69161;SDS011;56269;51.738;21.652;2022-11-14T03:07:21;40.53;;;12.80;;
69161;SDS011;56269;51.738;21.652;2022-11-14T03:09:46;40.90;;;12.80;;
69161;SDS011;56269;51.738;21.652;2022-11-14T03:12:16;40.43;;;13.00;;
69161;SDS011;56269;51.738;21.652;2022-11-14T03:14:43;38.83;;;12.95;;
69161;SDS011;56269;51.738;21.652;2022-11-14T03:17:10;45.35;;;13.07;;
69161;SDS011;56269;51.738;21.652;2022-11-14T03:19:36;37.95;;;12.30;;
69161;SDS011;56269;51.738;21.652;2022-11-14T03:22:03;37.22;;;11.13;;
69161;SDS011;56269;51.738;21.652;2022-11-14T03:24:29;34.33;;;11.43;;
69161;SDS011;56269;51.738;21.652;2022-11-14T03:26:55;37.42;;;11.25;;
69161;SDS011;56269;51.738;21.652;2022-11-14T03:29:21;33.10;;;10.70;;
69161;SDS011;56269;51.738;21.652;2022-11-14T03:31:47;34.53;;;10.95;;
69161;SDS011;56269;51.738;21.652;2022-11-14T03:34:13;31.63;;;10.87;;
69161;SDS011;56269;51.738;21.652;2022-11-14T03:36:39;31.02;;;9.88;;
69161;SDS011;56269;51.738;21.652;2022-11-14T03:39:06;29.70;;;10.80;;
69161;SDS011;56269;51.738;21.652;2022-11-14T03:41:32;38.03;;;10.48;;
69161;SDS011;56269;51.738;21.652;2022-11-14T03:43:58;31.92;;;10.23;;
69161;SDS011;56269;51.738;21.652;2022-11-14T03:46:24;32.70;;;10.07;;
69161;SDS011;56269;51.738;21.652;2022-11-14T03:48:50;31.70;;;9.40;;
69161;SDS011;56269;51.738;21.652;2022-11-14T03:51:16;30.92;;;9.70;;
69161;SDS011;56269;51.738;21.652;2022-11-14T03:53:42;30.23;;;9.27;;
69161;SDS011;56269;51.738;21.652;2022-11-14T03:56:08;26.63;;;8.60;;
69161;SDS011;56269;51.738;21.652;2022-11-14T03:58:34;30.35;;;10.32;;
69161;SDS011;56269;51.738;21.652;2022-11-14T04:01:01;29.83;;;9.45;;
69161;SDS011;56269;51.738;21.652;2022-11-14T04:03:28;31.30;;;9.75;;
69161;SDS011;56269;51.738;21.652;2022-11-14T04:05:54;29.05;;;9.73;;
69161;SDS011;56269;51.738;21.652;2022-11-14T04:08:20;26.70;;;8.33;;
69161;SDS011;56269;51.738;21.652;2022-11-14T04:10:47;28.83;;;9.15;;
69161;SDS011;56269;51.738;21.652;2022-11-14T04:13:13;31.95;;;10.05;;
69161;SDS011;56269;51.738;21.652;2022-11-14T04:15:40;29.05;;;8.50;;
69161;SDS011;56269;51.738;21.652;2022-11-14T04:18:06;21.13;;;7.28;;
69161;SDS011;56269;51.738;21.652;2022-11-14T04:20:32;26.47;;;8.30;;
69161;SDS011;56269;51.738;21.652;2022-11-14T04:22:58;27.30;;;9.20;;
69161;SDS011;56269;51.738;21.652;2022-11-14T04:25:24;21.17;;;7.28;;
69161;SDS011;56269;51.738;21.652;2022-11-14T04:27:50;27.77;;;9.17;;
69161;SDS011;56269;51.738;21.652;2022-11-14T04:30:16;26.05;;;7.80;;
69161;SDS011;56269;51.738;21.652;2022-11-14T04:32:45;22.55;;;7.80;;
69161;SDS011;56269;51.738;21.652;2022-11-14T04:35:13;22.73;;;7.85;;
69161;SDS011;56269;51.738;21.652;2022-11-14T04:37:39;24.55;;;8.30;;
69161;SDS011;56269;51.738;21.652;2022-11-14T04:40:05;25.80;;;8.80;;
69161;SDS011;56269;51.738;21.652;2022-11-14T04:42:32;20.73;;;6.93;;
69161;SDS011;56269;51.738;21.652;2022-11-14T04:44:58;24.42;;;8.98;;
69161;SDS011;56269;51.738;21.652;2022-11-14T04:47:25;27.52;;;9.80;;
69161;SDS011;56269;51.738;21.652;2022-11-14T04:49:51;21.58;;;7.75;;
69161;SDS011;56269;51.738;21.652;2022-11-14T04:52:17;19.70;;;7.03;;
69161;SDS011;56269;51.738;21.652;2022-11-14T04:54:43;16.40;;;5.97;;
69161;SDS011;56269;51.738;21.652;2022-11-14T04:57:09;23.88;;;8.30;;
69161;SDS011;56269;51.738;21.652;2022-11-14T04:59:36;23.55;;;8.73;;
69161;SDS011;56269;51.738;21.652;2022-11-14T05:02:02;16.80;;;6.87;;
69161;SDS011;56269;51.738;21.652;2022-11-14T05:04:28;27.05;;;9.18;;
69161;SDS011;56269;51.738;21.652;2022-11-14T05:06:55;19.85;;;6.75;;
69161;SDS011;56269;51.738;21.652;2022-11-14T05:09:21;17.80;;;6.65;;
69161;SDS011;56269;51.738;21.652;2022-11-14T05:11:47;23.30;;;8.32;;
69161;SDS011;56269;51.738;21.652;2022-11-14T05:14:14;25.50;;;8.67;;
69161;SDS011;56269;51.738;21.652;2022-11-14T05:16:40;23.58;;;9.23;;
69161;SDS011;56269;51.738;21.652;2022-11-14T05:19:06;21.30;;;8.27;;
69161;SDS011;56269;51.738;21.652;2022-11-14T05:21:32;15.57;;;5.85;;
69161;SDS011;56269;51.738;21.652;2022-11-14T05:23:58;20.63;;;6.82;;
69161;SDS011;56269;51.738;21.652;2022-11-14T05:26:24;16.27;;;6.53;;
69161;SDS011;56269;51.738;21.652;2022-11-14T05:28:50;18.83;;;6.43;;
69161;SDS011;56269;51.738;21.652;2022-11-14T05:31:17;16.33;;;6.28;;
69161;SDS011;56269;51.738;21.652;2022-11-14T05:33:43;19.60;;;6.80;;
69161;SDS011;56269;51.738;21.652;2022-11-14T05:36:12;18.55;;;6.43;;
69161;SDS011;56269;51.738;21.652;2022-11-14T05:38:40;16.93;;;6.50;;
69161;SDS011;56269;51.738;21.652;2022-11-14T05:41:10;17.10;;;6.50;;
69161;SDS011;56269;51.738;21.652;2022-11-14T05:43:41;17.42;;;5.68;;
69161;SDS011;56269;51.738;21.652;2022-11-14T05:46:11;15.25;;;5.00;;
69161;SDS011;56269;51.738;21.652;2022-11-14T05:48:38;17.92;;;6.50;;
69161;SDS011;56269;51.738;21.652;2022-11-14T05:51:06;19.03;;;6.37;;
69161;SDS011;56269;51.738;21.652;2022-11-14T05:53:34;19.20;;;5.90;;
69161;SDS011;56269;51.738;21.652;2022-11-14T05:56:01;19.13;;;6.45;;
69161;SDS011;56269;51.738;21.652;2022-11-14T05:58:31;20.70;;;6.50;;
69161;SDS011;56269;51.738;21.652;2022-11-14T06:03:42;11.50;;;3.83;;
69161;SDS011;56269;51.738;21.652;2022-11-14T06:06:11;15.25;;;5.38;;
69161;SDS011;56269;51.738;21.652;2022-11-14T06:08:39;16.92;;;5.97;;
69161;SDS011;56269;51.738;21.652;2022-11-14T06:11:07;11.00;;;3.85;;
69161;SDS011;56269;51.738;21.652;2022-11-14T06:13:35;11.75;;;3.72;;
69161;SDS011;56269;51.738;21.652;2022-11-14T06:16:03;12.37;;;4.83;;
69161;SDS011;56269;51.738;21.652;2022-11-14T06:18:31;16.60;;;5.32;;
69161;SDS011;56269;51.738;21.652;2022-11-14T06:21:02;12.73;;;5.07;;
69161;SDS011;56269;51.738;21.652;2022-11-14T06:23:30;15.52;;;5.63;;
69161;SDS011;56269;51.738;21.652;2022-11-14T06:25:58;15.27;;;4.97;;
69161;SDS011;56269;51.738;21.652;2022-11-14T06:28:28;13.27;;;5.33;;
69161;SDS011;56269;51.738;21.652;2022-11-14T06:30:58;16.05;;;5.57;;
69161;SDS011;56269;51.738;21.652;2022-11-14T06:33:32;13.38;;;5.22;;
69161;SDS011;56269;51.738;21.652;2022-11-14T06:36:02;10.27;;;3.65;;
69161;SDS011;56269;51.738;21.652;2022-11-14T06:38:30;15.50;;;5.70;;
69161;SDS011;56269;51.738;21.652;2022-11-14T06:41:04;16.13;;;5.50;;
69161;SDS011;56269;51.738;21.652;2022-11-14T06:43:35;11.95;;;4.15;;
69161;SDS011;56269;51.738;21.652;2022-11-14T06:46:03;14.52;;;4.93;;
69161;SDS011;56269;51.738;21.652;2022-11-14T06:48:30;11.63;;;3.58;;
69161;SDS011;56269;51.738;21.652;2022-11-14T06:50:57;14.38;;;5.20;;
69161;SDS011;56269;51.738;21.652;2022-11-14T06:53:24;10.83;;;4.07;;
69161;SDS011;56269;51.738;21.652;2022-11-14T06:55:59;11.77;;;3.95;;
69161;SDS011;56269;51.738;21.652;2022-11-14T06:58:28;11.27;;;3.80;;
69161;SDS011;56269;51.738;21.652;2022-11-14T07:01:01;13.77;;;4.60;;
69161;SDS011;56269;51.738;21.652;2022-11-14T07:03:28;11.48;;;3.60;;
69161;SDS011;56269;51.738;21.652;2022-11-14T07:06:01;11.73;;;4.47;;
69161;SDS011;56269;51.738;21.652;2022-11-14T07:08:29;10.48;;;3.80;;
69161;SDS011;56269;51.738;21.652;2022-11-14T07:11:02;8.55;;;3.22;;
69161;SDS011;56269;51.738;21.652;2022-11-14T07:13:33;10.50;;;3.50;;
69161;SDS011;56269;51.738;21.652;2022-11-14T07:15:59;12.43;;;4.47;;
69161;SDS011;56269;51.738;21.652;2022-11-14T07:18:28;10.67;;;3.80;;
69161;SDS011;56269;51.738;21.652;2022-11-14T07:20:59;8.68;;;2.80;;
69161;SDS011;56269;51.738;21.652;2022-11-14T07:23:28;9.52;;;2.92;;
69161;SDS011;56269;51.738;21.652;2022-11-14T07:25:58;8.88;;;3.28;;
69161;SDS011;56269;51.738;21.652;2022-11-14T07:28:25;8.70;;;2.90;;
69161;SDS011;56269;51.738;21.652;2022-11-14T07:30:52;6.23;;;2.13;;
69161;SDS011;56269;51.738;21.652;2022-11-14T07:33:18;8.68;;;2.97;;
69161;SDS011;56269;51.738;21.652;2022-11-14T07:35:44;9.70;;;3.38;;
69161;SDS011;56269;51.738;21.652;2022-11-14T07:38:11;8.88;;;3.15;;
69161;SDS011;56269;51.738;21.652;2022-11-14T07:40:37;9.70;;;3.10;;
69161;SDS011;56269;51.738;21.652;2022-11-14T07:43:03;10.10;;;3.40;;
69161;SDS011;56269;51.738;21.652;2022-11-14T07:45:29;8.48;;;3.20;;
69161;SDS011;56269;51.738;21.652;2022-11-14T07:47:56;11.20;;;3.42;;
69161;SDS011;56269;51.738;21.652;2022-11-14T07:50:25;8.30;;;2.85;;
69161;SDS011;56269;51.738;21.652;2022-11-14T07:52:53;8.05;;;2.70;;
69161;SDS011;56269;51.738;21.652;2022-11-14T07:55:20;5.77;;;2.07;;
69161;SDS011;56269;51.738;21.652;2022-11-14T07:57:47;7.90;;;2.38;;
69161;SDS011;56269;51.738;21.652;2022-11-14T08:00:17;9.25;;;3.35;;
69161;SDS011;56269;51.738;21.652;2022-11-14T08:02:44;9.32;;;3.15;;
69161;SDS011;56269;51.738;21.652;2022-11-14T08:05:11;10.77;;;3.28;;
69161;SDS011;56269;51.738;21.652;2022-11-14T08:07:37;16.27;;;4.40;;
69161;SDS011;56269;51.738;21.652;2022-11-14T08:10:03;12.38;;;3.90;;
69161;SDS011;56269;51.738;21.652;2022-11-14T08:12:30;14.68;;;4.15;;
69161;SDS011;56269;51.738;21.652;2022-11-14T08:14:56;11.68;;;4.05;;
69161;SDS011;56269;51.738;21.652;2022-11-14T08:17:23;14.77;;;4.40;;
69161;SDS011;56269;51.738;21.652;2022-11-14T08:19:48;18.73;;;5.30;;
69161;SDS011;56269;51.738;21.652;2022-11-14T08:22:15;13.18;;;4.10;;
69161;SDS011;56269;51.738;21.652;2022-11-14T08:24:41;16.92;;;4.97;;
69161;SDS011;56269;51.738;21.652;2022-11-14T08:27:07;14.13;;;4.82;;
69161;SDS011;56269;51.738;21.652;2022-11-14T08:29:33;15.93;;;4.87;;
69161;SDS011;56269;51.738;21.652;2022-11-14T08:32:00;17.48;;;5.10;;
69161;SDS011;56269;51.738;21.652;2022-11-14T08:34:26;13.82;;;4.13;;
69161;SDS011;56269;51.738;21.652;2022-11-14T08:36:53;14.35;;;4.20;;
69161;SDS011;56269;51.738;21.652;2022-11-14T08:39:21;12.93;;;4.57;;
69161;SDS011;56269;51.738;21.652;2022-11-14T08:41:47;18.20;;;5.10;;
69161;SDS011;56269;51.738;21.652;2022-11-14T08:44:13;12.82;;;3.85;;
69161;SDS011;56269;51.738;21.652;2022-11-14T08:46:39;16.70;;;4.85;;
69161;SDS011;56269;51.738;21.652;2022-11-14T08:49:05;15.88;;;4.47;;
69161;SDS011;56269;51.738;21.652;2022-11-14T08:51:32;17.43;;;4.53;;
69161;SDS011;56269;51.738;21.652;2022-11-14T08:53:57;19.67;;;5.80;;
69161;SDS011;56269;51.738;21.652;2022-11-14T08:56:24;15.77;;;5.00;;
69161;SDS011;56269;51.738;21.652;2022-11-14T08:58:50;11.80;;;4.30;;
69161;SDS011;56269;51.738;21.652;2022-11-14T09:01:16;11.30;;;4.35;;
69161;SDS011;56269;51.738;21.652;2022-11-14T09:03:42;13.05;;;4.47;;
69161;SDS011;56269;51.738;21.652;2022-11-14T09:06:08;11.65;;;4.28;;
69161;SDS011;56269;51.738;21.652;2022-11-14T09:08:35;10.88;;;4.18;;
69161;SDS011;56269;51.738;21.652;2022-11-14T09:11:01;10.53;;;4.07;;
69161;SDS011;56269;51.738;21.652;2022-11-14T09:13:30;12.52;;;4.65;;
69161;SDS011;56269;51.738;21.652;2022-11-14T09:15:57;12.60;;;4.95;;
69161;SDS011;56269;51.738;21.652;2022-11-14T09:18:24;12.70;;;4.38;;
69161;SDS011;56269;51.738;21.652;2022-11-14T09:20:50;15.73;;;5.07;;
69161;SDS011;56269;51.738;21.652;2022-11-14T09:23:16;13.07;;;5.03;;
69161;SDS011;56269;51.738;21.652;2022-11-14T09:25:42;13.38;;;5.15;;
69161;SDS011;56269;51.738;21.652;2022-11-14T09:28:09;12.02;;;4.45;;
69161;SDS011;56269;51.738;21.652;2022-11-14T09:30:36;14.68;;;4.70;;
69161;SDS011;56269;51.738;21.652;2022-11-14T09:33:03;13.60;;;4.90;;
69161;SDS011;56269;51.738;21.652;2022-11-14T09:35:29;13.35;;;4.93;;
69161;SDS011;56269;51.738;21.652;2022-11-14T09:38:04;15.23;;;5.85;;
69161;SDS011;56269;51.738;21.652;2022-11-14T09:46:31;18.60;;;6.50;;
69161;SDS011;56269;51.738;21.652;2022-11-14T09:49:02;15.45;;;5.25;;
69161;SDS011;56269;51.738;21.652;2022-11-14T09:51:34;25.02;;;8.07;;
69161;SDS011;56269;51.738;21.652;2022-11-14T09:56:49;29.35;;;8.77;;
69161;SDS011;56269;51.738;21.652;2022-11-14T09:59:16;31.47;;;9.57;;
69161;SDS011;56269;51.738;21.652;2022-11-14T10:10:40;26.73;;;8.45;;
69161;SDS011;56269;51.738;21.652;2022-11-14T10:13:25;27.20;;;7.67;;
69161;SDS011;56269;51.738;21.652;2022-11-14T10:19:21;27.27;;;8.32;;
69161;SDS011;56269;51.738;21.652;2022-11-14T10:22:04;34.72;;;9.20;;
69161;SDS011;56269;51.738;21.652;2022-11-14T10:25:02;23.45;;;6.60;;
69161;SDS011;56269;51.738;21.652;2022-11-14T10:27:42;28.33;;;7.53;;
69161;SDS011;56269;51.738;21.652;2022-11-14T10:30:17;21.42;;;7.10;;
69161;SDS011;56269;51.738;21.652;2022-11-14T10:35:16;25.05;;;7.82;;
69161;SDS011;56269;51.738;21.652;2022-11-14T10:40:33;25.80;;;7.23;;
69161;SDS011;56269;51.738;21.652;2022-11-14T10:43:18;31.73;;;7.07;;
69161;SDS011;56269;51.738;21.652;2022-11-14T10:46:12;27.85;;;7.15;;
69161;SDS011;56269;51.738;21.652;2022-11-14T10:48:42;21.48;;;6.50;;
69161;SDS011;56269;51.738;21.652;2022-11-14T10:54:04;21.27;;;7.20;;
69161;SDS011;56269;51.738;21.652;2022-11-14T10:56:34;25.75;;;8.45;;
69161;SDS011;56269;51.738;21.652;2022-11-14T10:59:14;29.38;;;7.93;;
69161;SDS011;56269;51.738;21.652;2022-11-14T11:01:41;29.08;;;9.02;;
69161;SDS011;56269;51.738;21.652;2022-11-14T11:04:12;27.05;;;8.85;;
69161;SDS011;56269;51.738;21.652;2022-11-14T11:06:44;25.00;;;8.57;;
69161;SDS011;56269;51.738;21.652;2022-11-14T11:09:43;19.13;;;6.97;;
69161;SDS011;56269;51.738;21.652;2022-11-14T11:15:17;35.78;;;8.73;;
69161;SDS011;56269;51.738;21.652;2022-11-14T11:17:52;27.33;;;9.50;;
69161;SDS011;56269;51.738;21.652;2022-11-14T11:23:01;30.27;;;9.40;;
69161;SDS011;56269;51.738;21.652;2022-11-14T11:25:30;25.75;;;8.18;;
69161;SDS011;56269;51.738;21.652;2022-11-14T11:28:17;27.35;;;8.40;;
69161;SDS011;56269;51.738;21.652;2022-11-14T11:30:58;32.58;;;10.90;;
69161;SDS011;56269;51.738;21.652;2022-11-14T11:33:26;35.47;;;10.00;;
69161;SDS011;56269;51.738;21.652;2022-11-14T11:36:00;35.35;;;10.82;;
69161;SDS011;56269;51.738;21.652;2022-11-14T11:38:29;33.90;;;10.50;;
69161;SDS011;56269;51.738;21.652;2022-11-14T11:41:38;30.73;;;10.05;;
69161;SDS011;56269;51.738;21.652;2022-11-14T11:43:53;35.00;;;10.75;;
69161;SDS011;56269;51.738;21.652;2022-11-14T11:46:25;33.97;;;10.20;;
69161;SDS011;56269;51.738;21.652;2022-11-14T11:49:09;29.63;;;10.32;;
69161;SDS011;56269;51.738;21.652;2022-11-14T11:51:48;28.67;;;9.82;;
69161;SDS011;56269;51.738;21.652;2022-11-14T11:54:21;34.17;;;11.13;;
69161;SDS011;56269;51.738;21.652;2022-11-14T11:56:55;30.23;;;10.43;;
69161;SDS011;56269;51.738;21.652;2022-11-14T11:59:31;31.00;;;9.20;;
69161;SDS011;56269;51.738;21.652;2022-11-14T12:02:02;27.35;;;8.73;;
69161;SDS011;56269;51.738;21.652;2022-11-14T12:04:55;22.48;;;8.77;;
69161;SDS011;56269;51.738;21.652;2022-11-14T12:07:37;27.70;;;10.27;;
69161;SDS011;56269;51.738;21.652;2022-11-14T12:10:13;34.78;;;11.52;;
69161;SDS011;56269;51.738;21.652;2022-11-14T12:21:21;21.70;;;8.05;;
69161;SDS011;56269;51.738;21.652;2022-11-14T12:32:12;31.30;;;11.77;;
69161;SDS011;56269;51.738;21.652;2022-11-14T12:34:44;22.13;;;8.80;;
69161;SDS011;56269;51.738;21.652;2022-11-14T12:37:14;27.75;;;9.88;;
69161;SDS011;56269;51.738;21.652;2022-11-14T12:39:58;32.57;;;11.87;;
69161;SDS011;56269;51.738;21.652;2022-11-14T12:42:27;23.27;;;9.30;;
69161;SDS011;56269;51.738;21.652;2022-11-14T12:44:53;31.73;;;11.20;;
69161;SDS011;56269;51.738;21.652;2022-11-14T12:47:20;40.85;;;13.98;;
69161;SDS011;56269;51.738;21.652;2022-11-14T12:57:55;26.80;;;9.98;;
69161;SDS011;56269;51.738;21.652;2022-11-14T13:00:37;25.70;;;9.45;;
69161;SDS011;56269;51.738;21.652;2022-11-14T13:06:10;19.17;;;7.67;;
69161;SDS011;56269;51.738;21.652;2022-11-14T13:09:01;20.25;;;6.72;;
69161;SDS011;56269;51.738;21.652;2022-11-14T13:11:46;22.65;;;8.68;;
69161;SDS011;56269;51.738;21.652;2022-11-14T13:14:46;22.45;;;8.77;;
69161;SDS011;56269;51.738;21.652;2022-11-14T13:17:41;24.98;;;9.45;;
69161;SDS011;56269;51.738;21.652;2022-11-14T13:20:28;22.77;;;8.47;;
69161;SDS011;56269;51.738;21.652;2022-11-14T13:33:49;18.53;;;7.70;;
69161;SDS011;56269;51.738;21.652;2022-11-14T13:47:45;25.93;;;10.10;;
69161;SDS011;56269;51.738;21.652;2022-11-14T13:50:16;22.95;;;8.65;;
69161;SDS011;56269;51.738;21.652;2022-11-14T13:52:50;22.02;;;8.57;;
69161;SDS011;56269;51.738;21.652;2022-11-14T13:55:20;20.50;;;8.15;;
69161;SDS011;56269;51.738;21.652;2022-11-14T14:00:22;22.43;;;8.57;;
69161;SDS011;56269;51.738;21.652;2022-11-14T14:02:58;29.85;;;11.50;;
69161;SDS011;56269;51.738;21.652;2022-11-14T14:13:33;24.83;;;10.40;;
69161;SDS011;56269;51.738;21.652;2022-11-14T14:16:30;31.83;;;11.70;;
69161;SDS011;56269;51.738;21.652;2022-11-14T14:21:52;31.50;;;12.85;;
69161;SDS011;56269;51.738;21.652;2022-11-14T14:30:08;21.27;;;9.23;;
69161;SDS011;56269;51.738;21.652;2022-11-14T14:32:35;34.97;;;15.10;;
69161;SDS011;56269;51.738;21.652;2022-11-14T14:37:51;24.05;;;10.63;;
69161;SDS011;56269;51.738;21.652;2022-11-14T14:40:42;26.67;;;10.70;;
69161;SDS011;56269;51.738;21.652;2022-11-14T14:43:11;34.33;;;13.73;;
69161;SDS011;56269;51.738;21.652;2022-11-14T14:45:47;25.95;;;10.20;;
69161;SDS011;56269;51.738;21.652;2022-11-14T14:48:20;26.35;;;11.20;;
69161;SDS011;56269;51.738;21.652;2022-11-14T14:50:50;29.98;;;11.98;;
69161;SDS011;56269;51.738;21.652;2022-11-14T14:53:19;45.43;;;17.20;;
69161;SDS011;56269;51.738;21.652;2022-11-14T15:00:57;19.27;;;8.48;;
69161;SDS011;56269;51.738;21.652;2022-11-14T15:03:25;20.58;;;9.63;;
69161;SDS011;56269;51.738;21.652;2022-11-14T15:06:00;18.33;;;7.30;;
69161;SDS011;56269;51.738;21.652;2022-11-14T15:08:28;22.60;;;8.65;;
69161;SDS011;56269;51.738;21.652;2022-11-14T15:10:58;26.30;;;9.48;;
69161;SDS011;56269;51.738;21.652;2022-11-14T15:13:25;26.42;;;10.73;;
69161;SDS011;56269;51.738;21.652;2022-11-14T15:15:54;23.95;;;10.65;;
69161;SDS011;56269;51.738;21.652;2022-11-14T15:18:25;31.13;;;11.93;;
69161;SDS011;56269;51.738;21.652;2022-11-14T15:21:06;20.60;;;9.00;;
69161;SDS011;56269;51.738;21.652;2022-11-14T15:23:37;34.53;;;13.50;;
69161;SDS011;56269;51.738;21.652;2022-11-14T15:26:25;37.00;;;15.00;;
69161;SDS011;56269;51.738;21.652;2022-11-14T15:28:50;33.72;;;13.13;;
69161;SDS011;56269;51.738;21.652;2022-11-14T15:31:19;39.67;;;15.83;;
69161;SDS011;56269;51.738;21.652;2022-11-14T15:34:03;45.67;;;17.80;;
69161;SDS011;56269;51.738;21.652;2022-11-14T15:36:31;38.63;;;16.63;;
69161;SDS011;56269;51.738;21.652;2022-11-14T15:38:58;31.98;;;13.13;;
69161;SDS011;56269;51.738;21.652;2022-11-14T15:41:46;33.90;;;13.52;;
69161;SDS011;56269;51.738;21.652;2022-11-14T15:44:28;34.70;;;14.63;;
69161;SDS011;56269;51.738;21.652;2022-11-14T15:46:59;23.65;;;10.23;;
69161;SDS011;56269;51.738;21.652;2022-11-14T15:49:27;31.52;;;13.43;;
69161;SDS011;56269;51.738;21.652;2022-11-14T15:51:57;35.58;;;16.08;;
69161;SDS011;56269;51.738;21.652;2022-11-14T15:56:57;28.23;;;11.30;;
69161;SDS011;56269;51.738;21.652;2022-11-14T15:59:31;35.50;;;14.38;;
69161;SDS011;56269;51.738;21.652;2022-11-14T16:02:19;38.30;;;15.93;;
69161;SDS011;56269;51.738;21.652;2022-11-14T16:04:57;28.65;;;12.55;;
69161;SDS011;56269;51.738;21.652;2022-11-14T16:07:25;24.55;;;10.95;;
69161;SDS011;56269;51.738;21.652;2022-11-14T16:09:52;37.63;;;16.37;;
69161;SDS011;56269;51.738;21.652;2022-11-14T16:12:19;33.88;;;14.15;;
69161;SDS011;56269;51.738;21.652;2022-11-14T16:14:45;31.45;;;12.93;;
69161;SDS011;56269;51.738;21.652;2022-11-14T16:17:13;35.85;;;14.30;;
69161;SDS011;56269;51.738;21.652;2022-11-14T16:19:40;39.40;;;15.65;;
69161;SDS011;56269;51.738;21.652;2022-11-14T16:22:14;19.60;;;7.83;;
69161;SDS011;56269;51.738;21.652;2022-11-14T16:24:42;30.92;;;12.90;;
69161;SDS011;56269;51.738;21.652;2022-11-14T16:27:08;31.10;;;13.27;;